createdAt,value
2023-02-22T00:01:08.220Z,59.30
2023-02-22T00:03:35.304Z,59.40
2023-02-22T00:06:05.318Z,59.40
2023-02-22T00:08:37.605Z,59.50
2023-02-22T00:11:11.291Z,59.40
2023-02-22T00:13:39.158Z,59.60
2023-02-22T00:16:07.044Z,59.80
2023-02-22T00:18:33.925Z,59.90
2023-02-22T00:21:01.759Z,60.00
2023-02-22T00:23:31.844Z,60.00
2023-02-22T00:26:00.500Z,60.00
2023-02-22T00:28:27.392Z,60.00
2023-02-22T00:30:54.949Z,60.00
2023-02-22T00:33:22.957Z,60.10
2023-02-22T00:35:49.935Z,60.10
2023-02-22T00:38:19.370Z,60.10
2023-02-22T00:40:46.471Z,60.00
2023-02-22T00:43:14.349Z,60.20
2023-02-22T00:45:41.954Z,60.30
2023-02-22T00:48:10.305Z,60.40
2023-02-22T00:50:37.733Z,60.50
2023-02-22T00:53:07.356Z,60.50
2023-02-22T00:55:37.817Z,60.50
2023-02-22T00:58:06.784Z,60.50
2023-02-22T01:00:39.785Z,60.50
2023-02-22T01:03:10.596Z,60.50
2023-02-22T01:05:38.489Z,60.50
2023-02-22T01:08:08.280Z,60.50
2023-02-22T01:10:37.477Z,60.50
2023-02-22T01:13:08.737Z,60.50
2023-02-22T01:15:39.801Z,60.50
2023-02-22T01:18:08.174Z,60.40
2023-02-22T01:20:35.593Z,60.30
2023-02-22T01:23:06.545Z,60.40
2023-02-22T01:25:35.017Z,60.30
2023-02-22T01:28:04.414Z,60.40
2023-02-22T01:30:35.359Z,60.40
2023-02-22T01:33:06.664Z,60.40
2023-02-22T01:35:37.252Z,60.40
2023-02-22T01:38:04.613Z,60.50
2023-02-22T01:40:42.642Z,60.50
2023-02-22T01:43:29.804Z,60.30
2023-02-22T01:46:04.204Z,60.20
2023-02-22T01:48:49.088Z,60.50
2023-02-22T01:51:49.120Z,60.50
2023-02-22T01:54:25.187Z,60.00
2023-02-22T01:57:12.207Z,60.40
2023-02-22T01:59:48.110Z,60.50
2023-02-22T02:02:16.480Z,60.70
2023-02-22T02:04:43.431Z,60.80
2023-02-22T02:07:16.460Z,60.80
2023-02-22T02:09:57.641Z,60.80
2023-02-22T02:12:26.111Z,60.90
2023-02-22T02:14:53.339Z,61.20
2023-02-22T02:17:23.615Z,61.30
2023-02-22T02:20:28.104Z,61.40
2023-02-22T02:23:13.400Z,61.00
2023-02-22T02:26:18.125Z,61.10
2023-02-22T02:29:36.328Z,60.70
2023-02-22T02:32:37.316Z,61.00
2023-02-22T02:35:11.776Z,61.40
2023-02-22T02:38:02.703Z,60.10
2023-02-22T02:40:36.312Z,60.90
2023-02-22T02:43:37.655Z,60.10
2023-02-22T02:46:24.519Z,61.10
2023-02-22T02:49:01.193Z,61.10
2023-02-22T02:51:41.645Z,61.50
2023-02-22T02:54:10.381Z,61.30
2023-02-22T02:56:37.800Z,61.60
2023-02-22T02:59:24.518Z,61.70
2023-02-22T03:02:39.577Z,61.80
2023-02-22T03:06:08.994Z,61.80
2023-02-22T03:08:57.234Z,61.30
2023-02-22T03:11:51.431Z,61.60
2023-02-22T03:14:37.897Z,61.50
2023-02-22T03:17:30.291Z,62.00
2023-02-22T03:20:31.893Z,61.50
2023-02-22T03:23:11.018Z,61.30
2023-02-22T03:25:47.337Z,62.20
2023-02-22T03:28:19.042Z,62.30
2023-02-22T03:30:58.463Z,62.40
2023-02-22T03:33:36.289Z,62.40
2023-02-22T03:36:21.809Z,62.30
2023-02-22T03:38:51.943Z,62.30
2023-02-22T03:41:25.278Z,62.40
2023-02-22T03:44:06.752Z,62.30
2023-02-22T03:46:38.140Z,62.00
2023-02-22T03:49:11.064Z,62.30
2023-02-22T03:51:39.618Z,62.30
2023-02-22T03:54:07.944Z,62.30
2023-02-22T03:56:59.743Z,62.30
2023-02-22T03:59:28.081Z,61.90
2023-02-22T04:01:56.906Z,62.20
2023-02-22T04:04:25.717Z,62.10
2023-02-22T04:06:53.267Z,62.10
2023-02-22T04:09:21.090Z,62.10
2023-02-22T04:11:48.422Z,61.90
2023-02-22T04:14:15.816Z,61.90
2023-02-22T04:16:42.814Z,61.90
2023-02-22T04:19:09.663Z,61.90
2023-02-22T04:21:36.514Z,61.90
2023-02-22T04:24:03.545Z,62.00
2023-02-22T04:26:30.352Z,62.00
2023-02-22T04:28:57.178Z,61.90
2023-02-22T04:31:24.181Z,61.90
2023-02-22T04:33:51.051Z,61.90
2023-02-22T04:36:18.121Z,61.90
2023-02-22T04:38:45.022Z,61.90
2023-02-22T04:41:11.882Z,62.40
2023-02-22T04:43:38.796Z,61.80
2023-02-22T04:46:05.928Z,61.80
2023-02-22T04:48:32.846Z,61.80
2023-02-22T04:50:59.709Z,61.80
2023-02-22T04:53:26.569Z,61.80
2023-02-22T04:55:53.448Z,61.90
2023-02-22T04:58:20.333Z,61.90
2023-02-22T05:00:47.213Z,62.00
2023-02-22T05:03:15.742Z,62.00
2023-02-22T05:05:43.668Z,62.20
2023-02-22T05:08:10.591Z,62.20
2023-02-22T05:10:37.462Z,62.20
2023-02-22T05:13:06.109Z,62.20
2023-02-22T05:15:33.057Z,62.20
2023-02-22T05:18:00.009Z,62.30
2023-02-22T05:20:33.916Z,62.30
2023-02-22T05:23:02.538Z,62.20
2023-02-22T05:25:29.763Z,62.30
2023-02-22T05:28:03.215Z,62.30
2023-02-22T05:30:35.108Z,62.20
2023-02-22T05:33:02.367Z,62.20
2023-02-22T05:35:29.744Z,62.20
2023-02-22T05:37:57.430Z,62.10
2023-02-22T05:40:26.805Z,62.10
2023-02-22T05:42:54.761Z,62.00
2023-02-22T05:45:24.805Z,62.10
2023-02-22T05:47:52.863Z,62.40
2023-02-22T05:50:20.829Z,62.00
2023-02-22T05:52:48.875Z,62.00
2023-02-22T05:55:18.770Z,62.10
2023-02-22T05:57:46.295Z,62.10
2023-02-22T06:00:26.949Z,62.20
2023-02-22T06:03:06.654Z,61.90
2023-02-22T06:05:33.923Z,62.20
2023-02-22T06:08:02.136Z,62.20
2023-02-22T06:10:30.160Z,62.70
2023-02-22T06:12:58.423Z,62.20
2023-02-22T06:15:27.274Z,62.20
2023-02-22T06:17:56.559Z,62.30
2023-02-22T06:20:26.770Z,62.30
2023-02-22T06:22:56.444Z,62.30
2023-02-22T06:25:27.195Z,62.40
2023-02-22T06:27:54.010Z,62.50
2023-02-22T06:30:24.338Z,61.10
2023-02-22T06:32:51.442Z,62.50
2023-02-22T06:35:19.119Z,62.60
2023-02-22T06:37:46.322Z,62.70
2023-02-22T06:40:14.656Z,62.80
2023-02-22T06:42:42.492Z,62.90
2023-02-22T06:45:10.630Z,62.90
2023-02-22T06:47:43.720Z,62.90
2023-02-22T06:50:31.498Z,62.80
2023-02-22T06:52:58.999Z,62.20
2023-02-22T06:55:29.675Z,63.00
2023-02-22T06:57:56.533Z,62.90
2023-02-22T07:00:25.682Z,63.10
2023-02-22T07:02:55.255Z,63.20
2023-02-22T07:05:24.772Z,63.20
2023-02-22T07:07:55.456Z,63.20
2023-02-22T07:10:30.231Z,63.20
2023-02-22T07:12:57.138Z,63.10
2023-02-22T07:15:27.915Z,63.30
2023-02-22T07:17:55.111Z,63.40
2023-02-22T07:20:24.520Z,62.10
2023-02-22T07:22:52.133Z,63.40
2023-02-22T07:25:20.231Z,63.20
2023-02-22T07:27:47.965Z,63.00
2023-02-22T07:30:28.040Z,63.00
2023-02-22T07:32:55.701Z,62.50
2023-02-22T07:35:32.159Z,62.80
2023-02-22T07:37:59.800Z,61.90
2023-02-22T07:40:28.213Z,62.70
2023-02-22T07:43:00.790Z,62.80
2023-02-22T07:45:36.018Z,62.60
2023-02-22T07:48:05.658Z,62.80
2023-02-22T07:50:34.975Z,64.20
2023-02-22T07:53:28.684Z,64.40
2023-02-22T07:56:01.382Z,62.50
2023-02-22T07:58:31.069Z,62.50
2023-02-22T08:00:58.926Z,61.10
2023-02-22T08:03:27.062Z,60.10
2023-02-22T08:05:57.658Z,59.10
2023-02-22T08:08:24.705Z,58.80
2023-02-22T08:10:52.708Z,58.40
2023-02-22T08:13:22.251Z,57.20
2023-02-22T08:15:53.813Z,56.60
2023-02-22T08:18:23.067Z,55.50
2023-02-22T08:20:52.120Z,55.40
2023-02-22T08:23:21.237Z,54.50
2023-02-22T08:25:48.166Z,53.90
2023-02-22T08:28:19.930Z,53.50
2023-02-22T08:30:47.018Z,52.70
2023-02-22T08:33:19.256Z,53.00
2023-02-22T08:35:49.675Z,52.00
2023-02-22T08:38:27.506Z,51.10
2023-02-22T08:40:54.660Z,48.90
2023-02-22T08:43:22.949Z,50.90
2023-02-22T08:45:51.985Z,50.00
2023-02-22T08:48:20.628Z,49.50
2023-02-22T08:50:47.684Z,48.40
2023-02-22T08:53:16.744Z,47.70
2023-02-22T08:55:45.007Z,46.90
2023-02-22T08:58:12.517Z,46.30
2023-02-22T09:00:41.517Z,46.40
2023-02-22T09:03:15.785Z,46.40
2023-02-22T09:05:44.394Z,45.20
2023-02-22T09:08:11.655Z,45.50
2023-02-22T09:10:38.673Z,45.60
2023-02-22T09:13:06.279Z,45.20
2023-02-22T09:15:35.919Z,44.90
2023-02-22T09:18:05.085Z,44.30
2023-02-22T09:20:31.951Z,43.50
2023-02-22T09:22:59.508Z,43.60
2023-02-22T09:25:27.222Z,43.80
2023-02-22T09:27:55.336Z,43.80
2023-02-22T09:30:32.151Z,43.10
2023-02-22T09:33:10.081Z,41.50
2023-02-22T09:35:42.363Z,42.70
2023-02-22T09:38:11.455Z,43.20
2023-02-22T09:40:45.472Z,42.60
2023-02-22T09:43:24.749Z,40.50
2023-02-22T09:46:22.297Z,41.90
2023-02-22T09:49:01.674Z,39.00
2023-02-22T09:51:42.336Z,39.90
2023-02-22T09:54:40.761Z,39.40
2023-02-22T09:57:16.304Z,44.10
2023-02-22T10:00:01.018Z,41.30
2023-02-22T10:02:36.868Z,38.40
2023-02-22T10:05:27.928Z,39.00
2023-02-22T10:08:05.864Z,36.10
2023-02-22T10:10:39.236Z,38.00
2023-02-22T10:13:25.744Z,38.90
2023-02-22T10:16:32.176Z,38.90
2023-02-22T10:19:16.803Z,36.40
2023-02-22T10:22:17.729Z,34.90
2023-02-22T10:25:17.919Z,36.20
2023-02-22T10:28:12.521Z,36.20
2023-02-22T10:30:59.212Z,35.00
2023-02-22T10:34:03.652Z,35.50
2023-02-22T10:36:30.746Z,34.80
2023-02-22T10:39:24.244Z,37.30
2023-02-22T10:41:57.244Z,33.40
2023-02-22T10:44:25.029Z,35.30
2023-02-22T10:46:53.418Z,35.20
2023-02-22T10:49:24.406Z,34.80
2023-02-22T10:52:01.931Z,34.70
2023-02-22T10:54:42.279Z,32.70
2023-02-22T10:57:12.187Z,33.60
2023-02-22T10:59:45.258Z,36.10
2023-02-22T11:02:31.302Z,36.10
2023-02-22T11:05:01.673Z,33.80
2023-02-22T11:07:34.165Z,36.20
2023-02-22T11:10:07.997Z,36.40
2023-02-22T11:12:39.633Z,35.20
2023-02-22T11:15:24.037Z,35.30
2023-02-22T11:17:55.272Z,34.70
2023-02-22T11:20:38.510Z,34.70
2023-02-22T11:23:08.229Z,33.60
2023-02-22T11:25:42.525Z,35.80
2023-02-22T11:28:20.876Z,35.10
2023-02-22T11:30:51.896Z,36.20
2023-02-22T11:33:23.944Z,36.00
2023-02-22T11:35:58.209Z,37.50
2023-02-22T11:38:32.727Z,37.90
2023-02-22T11:41:18.182Z,37.90
2023-02-22T11:43:51.607Z,36.30
2023-02-22T11:46:23.359Z,36.90
2023-02-22T11:48:58.977Z,37.00
2023-02-22T11:51:39.497Z,35.20
2023-02-22T11:54:09.359Z,35.70
2023-02-22T11:57:16.397Z,37.80
2023-02-22T12:00:15.505Z,36.00
2023-02-22T12:03:22.439Z,37.20
2023-02-22T12:06:32.981Z,36.50
2023-02-22T12:10:07.373Z,36.70
2023-02-22T12:13:10.012Z,36.60
2023-02-22T12:16:15.060Z,37.50
2023-02-22T12:18:53.505Z,37.10
2023-02-22T12:21:24.368Z,40.00
2023-02-22T12:24:04.219Z,39.80
2023-02-22T12:26:41.301Z,38.40
2023-02-22T12:29:41.577Z,38.80
2023-02-22T12:32:38.103Z,38.90
2023-02-22T12:35:36.373Z,39.50
2023-02-22T12:38:33.827Z,37.80
2023-02-22T12:41:38.351Z,39.40
2023-02-22T12:44:24.877Z,38.70
2023-02-22T12:46:56.965Z,39.80
2023-02-22T12:49:41.505Z,40.50
2023-02-22T12:52:44.201Z,40.40
2023-02-22T12:55:45.632Z,38.50
2023-02-22T13:06:41.515Z,41.10
2023-02-22T13:09:49.892Z,39.80
2023-02-22T13:12:35.184Z,39.00
2023-02-22T13:15:17.134Z,39.60
2023-02-22T13:18:28.617Z,41.50
2023-02-22T13:21:14.505Z,39.20
2023-02-22T13:24:16.274Z,39.50
2023-02-22T13:27:25.970Z,39.30
2023-02-22T13:29:59.799Z,39.20
2023-02-22T13:32:51.414Z,40.50
2023-02-22T13:35:44.412Z,39.40
2023-02-22T13:38:43.499Z,39.40
2023-02-22T13:41:20.398Z,41.50
2023-02-22T13:44:16.986Z,41.20
2023-02-22T13:47:36.837Z,38.80
2023-02-22T13:50:34.487Z,38.60
2023-02-22T13:53:10.944Z,39.10
2023-02-22T13:55:41.471Z,40.50
2023-02-22T13:58:12.673Z,40.80
2023-02-22T14:01:00.075Z,40.60
2023-02-22T14:03:40.432Z,38.70
2023-02-22T14:06:38.916Z,38.80
2023-02-22T14:09:19.979Z,40.20
2023-02-22T14:11:54.076Z,37.50
2023-02-22T14:14:21.448Z,39.30
2023-02-22T14:17:26.091Z,39.60
2023-02-22T14:20:21.388Z,37.90
2023-02-22T14:22:53.058Z,37.90
2023-02-22T14:25:37.298Z,39.80
2023-02-22T14:28:59.533Z,37.70
2023-02-22T14:31:52.783Z,38.40
2023-02-22T14:34:51.327Z,38.30
2023-02-22T14:37:25.855Z,38.20
2023-02-22T14:39:57.342Z,38.90
2023-02-22T14:42:37.732Z,41.20
2023-02-22T14:45:29.838Z,38.70
2023-02-22T14:48:40.075Z,39.20
2023-02-22T14:51:40.571Z,38.80
2023-02-22T14:54:31.832Z,39.00
2023-02-22T14:57:24.455Z,39.80
2023-02-22T15:00:33.284Z,39.30
2023-02-22T15:03:01.381Z,38.40
2023-02-22T15:05:38.305Z,40.50
2023-02-22T15:08:08.979Z,39.90
2023-02-22T15:10:51.585Z,39.90
2023-02-22T15:13:28.258Z,38.30
2023-02-22T15:16:07.958Z,40.40
2023-02-22T15:18:40.653Z,40.20
2023-02-22T15:21:16.385Z,40.90
2023-02-22T15:23:56.913Z,40.20
2023-02-22T15:26:26.823Z,38.30
2023-02-22T15:28:59.768Z,40.50
2023-02-22T15:31:35.411Z,39.40
2023-02-22T15:34:27.321Z,39.40
2023-02-22T15:36:57.622Z,38.50
2023-02-22T15:39:35.117Z,40.60
2023-02-22T15:42:22.974Z,39.70
2023-02-22T15:44:54.677Z,39.30
2023-02-22T15:47:29.428Z,40.80
2023-02-22T15:50:25.563Z,40.90
2023-02-22T15:53:07.780Z,39.40
2023-02-22T15:55:43.660Z,40.10
2023-02-22T15:58:15.032Z,40.70
2023-02-22T16:01:00.011Z,41.50
2023-02-22T16:03:33.141Z,41.50
2023-02-22T16:06:00.580Z,41.80
2023-02-22T16:08:54.131Z,42.00
2023-02-22T16:11:30.150Z,40.90
2023-02-22T16:14:06.649Z,42.10
2023-02-22T16:16:36.466Z,41.20
2023-02-22T16:19:42.357Z,42.50
2023-02-22T16:22:35.391Z,40.90
2023-02-22T16:25:24.831Z,41.50
2023-02-22T16:28:06.163Z,42.00
2023-02-22T16:30:39.735Z,43.00
2023-02-22T16:33:16.572Z,42.30
2023-02-22T16:35:51.980Z,42.90
2023-02-22T16:38:21.222Z,43.50
2023-02-22T16:40:55.588Z,43.60
2023-02-22T16:43:34.114Z,43.70
2023-02-22T16:46:03.223Z,43.60
2023-02-22T16:48:33.505Z,43.80
2023-02-22T16:51:08.903Z,43.90
2023-02-22T16:53:37.638Z,44.20
2023-02-22T16:56:09.650Z,44.10
2023-02-22T16:58:40.910Z,44.20
2023-02-22T17:01:08.381Z,44.20
2023-02-22T17:03:36.935Z,44.60
2023-02-22T17:06:04.132Z,44.70
2023-02-22T17:08:32.350Z,44.70
2023-02-22T17:11:00.798Z,44.90
2023-02-22T17:13:29.346Z,45.00
2023-02-22T17:15:57.685Z,45.30
2023-02-22T17:18:28.903Z,45.40
2023-02-22T17:20:56.625Z,45.60
2023-02-22T17:23:24.365Z,45.70
2023-02-22T17:25:53.492Z,45.80
2023-02-22T17:28:23.601Z,45.80
2023-02-22T17:30:52.882Z,46.00
2023-02-22T17:33:26.944Z,46.10
2023-02-22T17:35:57.794Z,46.20
2023-02-22T17:38:26.922Z,46.40
2023-02-22T17:40:54.824Z,44.80
2023-02-22T17:43:22.101Z,46.70
2023-02-22T17:45:49.165Z,46.70
2023-02-22T17:48:18.434Z,46.80
2023-02-22T17:50:47.869Z,47.10
2023-02-22T17:53:15.651Z,47.20
2023-02-22T17:55:43.046Z,47.40
2023-02-22T17:58:14.848Z,47.50
2023-02-22T18:00:50.191Z,47.60
2023-02-22T18:03:25.668Z,47.30
2023-02-22T18:05:58.251Z,47.70
2023-02-22T18:08:28.608Z,47.70
2023-02-22T18:10:58.999Z,47.90
2023-02-22T18:13:27.621Z,48.00
2023-02-22T18:15:59.921Z,48.10
2023-02-22T18:18:27.711Z,48.00
2023-02-22T18:21:00.145Z,48.20
2023-02-22T18:23:30.666Z,48.20
2023-02-22T18:26:14.873Z,48.10
2023-02-22T18:28:41.763Z,48.20
2023-02-22T18:31:14.401Z,48.30
2023-02-22T18:33:47.721Z,48.40
2023-02-22T18:36:16.388Z,48.60
2023-02-22T18:38:44.569Z,48.70
2023-02-22T18:41:18.315Z,48.80
2023-02-22T18:43:50.862Z,48.80
2023-02-22T18:46:21.168Z,48.90
2023-02-22T18:48:52.999Z,49.00
2023-02-22T18:51:20.077Z,49.00
2023-02-22T18:53:48.009Z,49.20
2023-02-22T18:56:21.699Z,49.70
2023-02-22T18:58:54.041Z,49.40
2023-02-22T19:01:22.091Z,49.40
2023-02-22T19:03:49.340Z,49.50
2023-02-22T19:06:19.232Z,49.50
2023-02-22T19:08:47.101Z,49.60
2023-02-22T19:11:24.095Z,49.70
2023-02-22T19:13:56.265Z,49.70
2023-02-22T19:16:25.252Z,49.80
2023-02-22T19:18:57.094Z,49.80
2023-02-22T19:21:25.865Z,49.90
2023-02-22T19:23:52.762Z,50.00
2023-02-22T19:26:24.104Z,50.00
2023-02-22T19:28:54.623Z,50.10
2023-02-22T19:31:33.647Z,50.20
2023-02-22T19:34:10.421Z,50.10
2023-02-22T19:36:47.332Z,50.10
2023-02-22T19:39:16.545Z,50.20
2023-02-22T19:41:43.621Z,50.40
2023-02-22T19:44:10.935Z,50.50
2023-02-22T19:46:38.170Z,50.60
2023-02-22T19:49:06.787Z,50.80
2023-02-22T19:51:34.383Z,50.90
2023-02-22T19:54:05.909Z,51.10
2023-02-22T19:56:35.239Z,51.10
2023-02-22T19:59:13.324Z,51.20
2023-02-22T20:01:44.425Z,51.20
2023-02-22T20:04:18.682Z,51.70
2023-02-22T20:06:46.885Z,51.20
2023-02-22T20:09:18.711Z,51.20
2023-02-22T20:11:49.434Z,51.10
2023-02-22T20:14:23.475Z,51.10
2023-02-22T20:16:52.971Z,51.20
2023-02-22T20:19:22.444Z,51.20
2023-02-22T20:21:52.256Z,51.30
2023-02-22T20:24:19.447Z,51.30
2023-02-22T20:26:47.585Z,51.40
2023-02-22T20:29:15.762Z,51.40
2023-02-22T20:31:44.535Z,51.50
2023-02-22T20:34:11.822Z,51.60
2023-02-22T20:36:41.451Z,51.60
2023-02-22T20:39:13.443Z,51.70
2023-02-22T20:41:46.407Z,51.70
2023-02-22T20:44:17.278Z,51.70
2023-02-22T20:46:45.120Z,51.80
2023-02-22T20:49:17.159Z,50.60
2023-02-22T20:51:46.236Z,51.70
2023-02-22T20:54:13.585Z,51.90
2023-02-22T20:56:43.244Z,52.00
2023-02-22T20:59:17.120Z,52.00
2023-02-22T21:01:44.495Z,52.00
2023-02-22T21:04:13.454Z,52.10
2023-02-22T21:06:41.412Z,52.20
2023-02-22T21:09:15.048Z,52.30
2023-02-22T21:11:42.820Z,52.30
2023-02-22T21:14:17.048Z,52.30
2023-02-22T21:16:46.811Z,52.30
2023-02-22T21:19:27.386Z,52.40
2023-02-22T21:22:01.341Z,52.40
2023-02-22T21:24:29.518Z,52.50
2023-02-22T21:27:00.130Z,52.60
2023-02-22T21:29:28.730Z,52.60
2023-02-22T21:31:56.715Z,52.70
2023-02-22T21:34:25.718Z,52.80
2023-02-22T21:36:53.309Z,52.80
2023-02-22T21:39:20.480Z,52.90
2023-02-22T21:41:50.901Z,52.90
2023-02-22T21:44:19.208Z,53.00
2023-02-22T21:46:50.654Z,53.00
2023-02-22T21:49:22.484Z,53.10
2023-02-22T21:51:51.598Z,53.20
2023-02-22T21:54:19.217Z,53.20
2023-02-22T21:56:46.311Z,53.40
2023-02-22T22:04:42.948Z,53.40
2023-02-22T22:07:09.857Z,53.50
2023-02-22T22:09:41.187Z,53.60
2023-02-22T22:12:10.167Z,53.60
2023-02-22T22:14:38.088Z,53.70
2023-02-22T22:17:08.796Z,53.80
2023-02-22T22:19:41.697Z,53.80
2023-02-22T22:22:09.024Z,53.90
2023-02-22T22:24:36.960Z,53.90
2023-02-22T22:27:06.420Z,54.00
2023-02-22T22:29:34.433Z,54.10
2023-02-22T22:32:02.657Z,54.10
2023-02-22T22:34:31.746Z,54.10
2023-02-22T22:36:58.757Z,54.20
2023-02-22T22:39:26.907Z,54.20
2023-02-22T22:41:54.344Z,54.30
2023-02-22T22:44:22.291Z,54.30
2023-02-22T22:46:53.505Z,54.30
2023-02-22T22:49:20.773Z,54.40
2023-02-22T22:51:48.198Z,54.50
2023-02-22T22:54:15.137Z,54.50
2023-02-22T22:56:41.985Z,54.60
2023-02-22T22:59:10.739Z,54.60
2023-02-22T23:01:44.510Z,54.70
2023-02-22T23:04:16.954Z,54.80
2023-02-22T23:06:52.447Z,54.80
2023-02-22T23:09:22.330Z,55.30
2023-02-22T23:11:56.708Z,54.80
2023-02-22T23:14:32.654Z,54.90
2023-02-22T23:17:03.906Z,55.00
2023-02-22T23:19:33.630Z,55.00
2023-02-22T23:22:05.116Z,55.10
2023-02-22T23:24:36.163Z,55.10
2023-02-22T23:27:10.713Z,55.20
2023-02-22T23:29:41.064Z,55.10
2023-02-22T23:32:09.447Z,55.10
2023-02-22T23:34:41.011Z,55.10
2023-02-22T23:37:10.334Z,55.10
2023-02-22T23:39:38.461Z,55.10
2023-02-22T23:42:08.665Z,55.10
2023-02-22T23:44:36.124Z,55.20
2023-02-22T23:47:03.850Z,55.20
2023-02-22T23:49:35.947Z,55.30
2023-02-22T23:52:04.480Z,55.30
2023-02-22T23:54:36.442Z,55.40
2023-02-22T23:57:05.488Z,55.50
2023-02-22T23:59:33.710Z,55.60
